createdAt,value
2018-12-30T00:00:42.451Z,95612.91
2018-12-30T00:03:11.380Z,95616.75
2018-12-30T00:05:40.328Z,95621.04
2018-12-30T00:08:08.951Z,95616.44
2018-12-30T00:10:37.499Z,95622.52
2018-12-30T00:13:06.212Z,95618.47
2018-12-30T00:15:35.972Z,95616.13
2018-12-30T00:18:04.978Z,95623.89
2018-12-30T00:20:34.215Z,95627.42
2018-12-30T00:23:02.750Z,95621.59
2018-12-30T00:25:31.326Z,95621.38
2018-12-30T00:28:00.256Z,95623.09
2018-12-30T00:30:28.816Z,95606.52
2018-12-30T00:32:57.291Z,95622.37
2018-12-30T00:35:26.113Z,95617.75
2018-12-30T00:37:54.725Z,95618.28
2018-12-30T00:40:23.733Z,95617.84
2018-12-30T00:42:52.257Z,95613.44
2018-12-30T00:45:20.871Z,95619.08
2018-12-30T00:47:49.435Z,95616.01
2018-12-30T00:50:18.440Z,95616.39
2018-12-30T00:52:47.045Z,95614.50
2018-12-30T00:55:15.586Z,95609.27
2018-12-30T00:57:44.376Z,95620.67
2018-12-30T01:00:13.061Z,95615.66
2018-12-30T01:02:41.695Z,95623.38
2018-12-30T01:05:10.553Z,95615.25
2018-12-30T01:07:39.426Z,95615.88
2018-12-30T01:10:09.308Z,95604.41
2018-12-30T01:12:37.990Z,95611.20
2018-12-30T01:15:06.784Z,95608.48
2018-12-30T01:17:35.260Z,95607.08
2018-12-30T01:20:04.389Z,95603.19
2018-12-30T01:22:33.091Z,95599.35
2018-12-30T01:25:01.636Z,95598.23
2018-12-30T01:27:30.382Z,95606.33
2018-12-30T01:29:58.942Z,95600.73
2018-12-30T01:32:27.492Z,95592.06
2018-12-30T01:34:56.814Z,95587.80
2018-12-30T01:37:25.432Z,95591.78
2018-12-30T01:39:53.989Z,95590.23
2018-12-30T01:42:22.786Z,95594.69
2018-12-30T01:44:51.330Z,95593.73
2018-12-30T01:47:19.962Z,95588.11
2018-12-30T01:49:48.505Z,95584.95
2018-12-30T01:52:16.976Z,95589.12
2018-12-30T01:54:45.880Z,95582.17
2018-12-30T01:57:14.500Z,95585.63
2018-12-30T01:59:43.046Z,95577.52
2018-12-30T02:02:11.707Z,95576.56
2018-12-30T02:04:40.315Z,95576.37
2018-12-30T02:07:08.861Z,95570.00
2018-12-30T02:09:37.691Z,95557.62
2018-12-30T02:12:06.307Z,95565.94
2018-12-30T02:14:35.213Z,95560.32
2018-12-30T02:17:03.776Z,95560.69
2018-12-30T02:19:32.335Z,95552.90
2018-12-30T02:22:01.225Z,95556.97
2018-12-30T02:24:29.841Z,95550.16
2018-12-30T02:26:58.340Z,95546.15
2018-12-30T02:29:26.901Z,95542.86
2018-12-30T02:31:55.521Z,95545.34
2018-12-30T02:34:24.186Z,95545.32
2018-12-30T02:36:52.661Z,95538.58
2018-12-30T02:39:21.227Z,95538.95
2018-12-30T02:41:49.840Z,95537.22
2018-12-30T02:44:18.435Z,95536.97
2018-12-30T02:46:47.051Z,95535.23
2018-12-30T02:49:15.596Z,95530.16
2018-12-30T02:51:50.183Z,95530.80
2018-12-30T02:54:14.686Z,95518.66
2018-12-30T02:56:43.578Z,95524.05
2018-12-30T02:59:12.429Z,95518.25
2018-12-30T03:01:40.981Z,95518.80
2018-12-30T03:04:09.527Z,95514.19
2018-12-30T03:06:38.170Z,95513.77
2018-12-30T03:09:07.763Z,95510.83
2018-12-30T03:11:36.304Z,95508.12
2018-12-30T03:14:04.959Z,95513.41
2018-12-30T03:16:33.951Z,95508.38
2018-12-30T03:19:02.514Z,95506.74
2018-12-30T03:21:31.008Z,95509.09
2018-12-30T03:23:59.542Z,95505.41
2018-12-30T03:26:28.470Z,95505.47
2018-12-30T03:28:57.030Z,95499.83
2018-12-30T03:31:25.641Z,95491.92
2018-12-30T03:33:54.626Z,95493.19
2018-12-30T03:36:23.167Z,95493.41
2018-12-30T03:38:51.791Z,95491.51
2018-12-30T03:41:20.538Z,95490.77
2018-12-30T03:43:49.110Z,95490.92
2018-12-30T03:46:17.673Z,95483.22
2018-12-30T03:48:46.434Z,95485.86
2018-12-30T03:51:15.063Z,95485.12
2018-12-30T03:53:43.613Z,95479.12
2018-12-30T03:56:12.551Z,95484.34
2018-12-30T03:58:41.169Z,95485.38
2018-12-30T04:01:09.786Z,95488.13
2018-12-30T04:03:38.559Z,95485.38
2018-12-30T04:06:07.187Z,95481.28
2018-12-30T04:08:35.843Z,95484.64
2018-12-30T04:11:04.699Z,95484.25
2018-12-30T04:13:33.245Z,95478.41
2018-12-30T04:16:01.865Z,95482.19
2018-12-30T04:18:30.455Z,95479.99
2018-12-30T04:20:59.014Z,95486.83
2018-12-30T04:23:33.807Z,95492.45
2018-12-30T04:26:02.470Z,95493.25
2018-12-30T04:28:31.015Z,95487.34
2018-12-30T04:30:59.567Z,95493.73
2018-12-30T04:33:28.394Z,95486.93
2018-12-30T04:35:57.016Z,95495.13
2018-12-30T04:38:25.571Z,95493.70
2018-12-30T04:40:54.549Z,95493.99
2018-12-30T04:43:23.109Z,95493.80
2018-12-30T04:45:51.650Z,95485.67
2018-12-30T04:48:20.255Z,95485.12
2018-12-30T04:50:48.865Z,95488.02
2018-12-30T04:53:17.424Z,95482.73
2018-12-30T04:55:46.362Z,95488.16
2018-12-30T04:58:14.899Z,95484.09
2018-12-30T05:00:43.516Z,95489.13
2018-12-30T05:03:12.419Z,95491.83
2018-12-30T05:05:40.913Z,95491.28
2018-12-30T05:08:09.477Z,95498.70
2018-12-30T05:10:38.376Z,95493.03
2018-12-30T05:13:06.923Z,95493.92
2018-12-30T05:15:35.521Z,95491.60
2018-12-30T05:18:04.456Z,95487.22
2018-12-30T05:20:33.089Z,95486.05
2018-12-30T05:23:01.651Z,95482.41
2018-12-30T05:25:30.491Z,95486.70
2018-12-30T05:27:59.044Z,95483.41
2018-12-30T05:30:27.679Z,95484.51
2018-12-30T05:32:56.509Z,95487.80
2018-12-30T05:35:25.127Z,95488.60
2018-12-30T05:37:53.745Z,95486.02
2018-12-30T05:40:22.609Z,95486.61
2018-12-30T05:42:51.160Z,95484.95
2018-12-30T05:45:23.923Z,95484.95
2018-12-30T05:47:52.752Z,95482.22
2018-12-30T05:50:21.372Z,95479.73
2018-12-30T05:52:49.929Z,95482.44
2018-12-30T05:55:18.457Z,95484.34
2018-12-30T05:57:47.217Z,95483.89
2018-12-30T06:00:15.837Z,95480.80
2018-12-30T06:02:44.768Z,95485.35
2018-12-30T06:05:13.319Z,95492.06
2018-12-30T06:07:41.947Z,95489.89
2018-12-30T06:10:10.835Z,95494.51
2018-12-30T06:12:39.386Z,95491.25
2018-12-30T06:15:08.032Z,95488.54
2018-12-30T06:17:36.993Z,95499.55
2018-12-30T06:20:05.816Z,95495.16
2018-12-30T06:22:34.383Z,95495.19
2018-12-30T06:25:03.039Z,95493.09
2018-12-30T06:27:31.587Z,95503.29
2018-12-30T06:30:00.166Z,95504.06
2018-12-30T06:32:28.702Z,95502.48
2018-12-30T06:34:57.333Z,95507.64
2018-12-30T06:37:25.895Z,95510.67
2018-12-30T06:39:54.737Z,95511.96
2018-12-30T06:42:23.348Z,95512.86
2018-12-30T06:44:51.849Z,95521.03
2018-12-30T06:47:21.206Z,95520.76
2018-12-30T06:49:49.818Z,95525.14
2018-12-30T06:52:18.374Z,95524.72
2018-12-30T06:54:51.567Z,95516.03
2018-12-30T06:57:20.139Z,95512.70
2018-12-30T06:59:48.757Z,95520.76
2018-12-30T07:02:18.126Z,95522.16
2018-12-30T07:04:46.674Z,95516.39
2018-12-30T07:07:15.229Z,95510.64
2018-12-30T07:09:44.085Z,95520.06
2018-12-30T07:12:12.719Z,95513.55
2018-12-30T07:14:41.198Z,95521.19
2018-12-30T07:17:09.787Z,95518.05
2018-12-30T07:19:38.417Z,95519.52
2018-12-30T07:22:06.988Z,95517.11
2018-12-30T07:24:35.782Z,95515.70
2018-12-30T07:27:04.398Z,95518.92
2018-12-30T07:29:32.941Z,95517.46
2018-12-30T07:32:01.793Z,95515.53
2018-12-30T07:34:30.420Z,95516.00
2018-12-30T07:36:58.967Z,95518.87
2018-12-30T07:39:27.565Z,95520.92
2018-12-30T07:41:56.127Z,95529.05
2018-12-30T07:44:24.748Z,95525.86
2018-12-30T07:46:53.641Z,95523.39
2018-12-30T07:49:22.198Z,95531.89
2018-12-30T07:51:50.748Z,95529.78
2018-12-30T07:54:19.436Z,95525.83
2018-12-30T07:56:47.989Z,95530.81
2018-12-30T07:59:16.473Z,95530.77
2018-12-30T08:01:45.076Z,95530.62
2018-12-30T08:04:13.707Z,95532.03
2018-12-30T08:06:42.273Z,95526.97
2018-12-30T08:09:11.208Z,95532.41
2018-12-30T08:11:39.764Z,95530.52
2018-12-30T08:14:08.329Z,95532.25
2018-12-30T08:16:37.243Z,95532.66
2018-12-30T08:19:05.876Z,95527.22
2018-12-30T08:21:34.436Z,95523.59
2018-12-30T08:24:03.109Z,95531.56
2018-12-30T08:26:31.658Z,95530.69
2018-12-30T08:29:00.303Z,95531.03
2018-12-30T08:31:29.279Z,95530.63
2018-12-30T08:33:57.849Z,95534.28
2018-12-30T08:36:26.477Z,95537.85
2018-12-30T08:38:55.414Z,95537.08
2018-12-30T08:41:24.063Z,95538.19
2018-12-30T08:43:52.645Z,95540.36
2018-12-30T08:46:21.484Z,95538.92
2018-12-30T08:48:49.970Z,95546.66
2018-12-30T08:51:18.535Z,95541.91
2018-12-30T08:53:47.417Z,95541.89
2018-12-30T08:56:15.970Z,95532.10
2018-12-30T08:58:44.471Z,95541.08
2018-12-30T09:01:13.287Z,95537.73
2018-12-30T09:03:41.910Z,95534.18
2018-12-30T09:06:10.535Z,95536.07
2018-12-30T09:08:39.335Z,95538.53
2018-12-30T09:11:07.885Z,95535.80
2018-12-30T09:13:36.514Z,95527.78
2018-12-30T09:16:05.396Z,95530.08
2018-12-30T09:18:33.879Z,95529.96
2018-12-30T09:21:02.448Z,95533.38
2018-12-30T09:23:37.260Z,95533.25
2018-12-30T09:26:01.351Z,95531.62
2018-12-30T09:28:33.308Z,95521.80
2018-12-30T09:31:01.855Z,95520.98
2018-12-30T09:33:30.342Z,95512.88
2018-12-30T09:35:58.986Z,95523.67
2018-12-30T09:38:27.731Z,95520.37
2018-12-30T09:40:56.295Z,95518.88
2018-12-30T09:43:25.130Z,95517.70
2018-12-30T09:45:53.680Z,95515.52
2018-12-30T09:48:22.304Z,95514.70
2018-12-30T09:50:50.875Z,95515.60
2018-12-30T09:53:19.689Z,95512.75
2018-12-30T09:55:48.235Z,95503.61
2018-12-30T09:58:16.860Z,95501.19
2018-12-30T10:00:45.529Z,95500.12
2018-12-30T10:03:14.097Z,95497.78
2018-12-30T10:05:42.681Z,95496.89
2018-12-30T10:08:11.267Z,95491.74
2018-12-30T10:10:39.828Z,95494.05
2018-12-30T10:13:08.449Z,95493.08
2018-12-30T10:15:37.235Z,95486.87
2018-12-30T10:18:05.716Z,95489.69
2018-12-30T10:20:34.334Z,95485.30
2018-12-30T10:23:03.224Z,95485.25
2018-12-30T10:25:31.787Z,95482.22
2018-12-30T10:28:00.343Z,95476.73
2018-12-30T10:30:29.226Z,95470.35
2018-12-30T10:32:57.862Z,95468.59
2018-12-30T10:35:26.481Z,95467.16
2018-12-30T10:37:55.281Z,95458.22
2018-12-30T10:40:23.833Z,95457.84
2018-12-30T10:42:52.621Z,95453.68
2018-12-30T10:45:21.456Z,95447.53
2018-12-30T10:47:49.953Z,95450.98
2018-12-30T10:50:18.588Z,95451.17
2018-12-30T10:52:47.515Z,95451.78
2018-12-30T10:55:16.097Z,95444.04
2018-12-30T10:57:44.586Z,95444.06
2018-12-30T11:00:13.562Z,95440.45
2018-12-30T11:02:42.208Z,95436.80
2018-12-30T11:05:10.827Z,95437.78
2018-12-30T11:07:39.633Z,95432.00
2018-12-30T11:10:08.356Z,95429.98
2018-12-30T11:12:36.991Z,95426.38
2018-12-30T11:15:06.344Z,95424.01
2018-12-30T11:17:34.902Z,95422.81
2018-12-30T11:20:03.529Z,95423.84
2018-12-30T11:22:32.365Z,95425.66
2018-12-30T11:25:00.909Z,95422.06
2018-12-30T11:27:29.539Z,95425.98
2018-12-30T11:29:58.223Z,95420.84
2018-12-30T11:32:27.064Z,95422.44
2018-12-30T11:34:55.619Z,95422.04
2018-12-30T11:37:24.339Z,95418.31
2018-12-30T11:39:52.971Z,95420.02
2018-12-30T11:42:21.450Z,95417.06
2018-12-30T11:44:50.304Z,95417.67
2018-12-30T11:47:18.957Z,95418.58
2018-12-30T11:49:47.585Z,95418.02
2018-12-30T11:52:16.351Z,95411.84
2018-12-30T11:54:44.909Z,95406.22
2018-12-30T11:57:13.533Z,95410.24
2018-12-30T11:59:42.220Z,95417.41
2018-12-30T12:02:10.783Z,95411.17
2018-12-30T12:04:39.334Z,95417.52
2018-12-30T12:07:08.060Z,95414.27
2018-12-30T12:09:36.626Z,95410.78
2018-12-30T12:12:05.365Z,95409.90
2018-12-30T12:14:34.221Z,95414.11
2018-12-30T12:17:02.781Z,95409.17
2018-12-30T12:19:31.351Z,95412.80
2018-12-30T12:22:00.017Z,95411.55
2018-12-30T12:24:28.591Z,95410.96
2018-12-30T12:26:57.136Z,95408.56
2018-12-30T12:29:26.026Z,95407.61
2018-12-30T12:31:54.652Z,95405.58
2018-12-30T12:34:23.222Z,95409.07
2018-12-30T12:36:51.973Z,95412.22
2018-12-30T12:39:20.524Z,95411.50
2018-12-30T12:41:49.091Z,95409.37
2018-12-30T12:44:18.033Z,95416.19
2018-12-30T12:46:46.653Z,95412.22
2018-12-30T12:49:15.297Z,95409.47
2018-12-30T12:51:44.179Z,95413.19
2018-12-30T12:54:12.737Z,95410.30
2018-12-30T12:56:41.362Z,95417.68
2018-12-30T12:59:10.120Z,95410.43
2018-12-30T13:01:39.345Z,95411.39
2018-12-30T13:04:07.966Z,95407.65
2018-12-30T13:06:36.808Z,95412.55
2018-12-30T13:09:06.652Z,95407.90
2018-12-30T13:11:35.146Z,95412.44
2018-12-30T13:14:03.998Z,95408.48
2018-12-30T13:16:32.620Z,95407.37
2018-12-30T13:19:01.196Z,95417.02
2018-12-30T13:21:29.806Z,95412.91
2018-12-30T13:23:58.357Z,95411.81
2018-12-30T13:26:26.980Z,95414.05
2018-12-30T13:28:55.721Z,95411.73
2018-12-30T13:31:24.458Z,95408.19
2018-12-30T13:33:53.027Z,95412.08
2018-12-30T13:36:21.887Z,95406.70
2018-12-30T13:38:50.510Z,95409.81
2018-12-30T13:41:19.135Z,95411.95
2018-12-30T13:43:47.795Z,95404.76
2018-12-30T13:46:16.287Z,95410.91
2018-12-30T13:48:44.837Z,95413.80
2018-12-30T13:51:13.503Z,95409.14
2018-12-30T13:53:42.140Z,95415.90
2018-12-30T13:56:10.615Z,95410.75
2018-12-30T13:58:39.504Z,95401.25
2018-12-30T14:01:09.152Z,95409.20
2018-12-30T14:03:37.788Z,95417.39
2018-12-30T14:06:06.910Z,95412.45
2018-12-30T14:08:35.410Z,95409.93
2018-12-30T14:11:03.960Z,95409.30
2018-12-30T14:13:32.974Z,95407.85
2018-12-30T14:16:01.599Z,95408.81
2018-12-30T14:18:30.157Z,95413.14
2018-12-30T14:20:59.015Z,95410.33
2018-12-30T14:23:27.634Z,95405.23
2018-12-30T14:25:56.270Z,95412.89
2018-12-30T14:28:24.859Z,95410.22
2018-12-30T14:30:53.355Z,95419.48
2018-12-30T14:33:21.993Z,95411.88
2018-12-30T14:35:50.920Z,95408.67
2018-12-30T14:38:19.491Z,95407.45
2018-12-30T14:40:48.124Z,95408.77
2018-12-30T14:43:16.693Z,95419.25
2018-12-30T14:45:45.317Z,95409.36
2018-12-30T14:48:13.961Z,95415.95
2018-12-30T14:50:42.829Z,95415.51
2018-12-30T14:53:19.088Z,95414.10
2018-12-30T14:55:41.572Z,95423.32
2018-12-30T14:58:10.240Z,95418.36
2018-12-30T15:00:38.861Z,95416.77
2018-12-30T15:03:07.463Z,95420.16
2018-12-30T15:05:36.372Z,95415.45
2018-12-30T15:08:05.021Z,95418.03
2018-12-30T15:10:33.654Z,95421.03
2018-12-30T15:13:02.236Z,95418.52
2018-12-30T15:15:30.825Z,95419.48
2018-12-30T15:17:59.446Z,95423.91
2018-12-30T15:20:28.033Z,95425.59
2018-12-30T15:22:56.660Z,95414.15
2018-12-30T15:25:25.276Z,95421.61
2018-12-30T15:27:54.166Z,95425.48
2018-12-30T15:30:22.642Z,95427.03
2018-12-30T15:32:51.274Z,95427.52
2018-12-30T15:35:19.976Z,95431.10
2018-12-30T15:37:48.634Z,95426.22
2018-12-30T15:40:17.138Z,95433.53
2018-12-30T15:42:45.792Z,95432.03
2018-12-30T15:45:14.428Z,95431.96
2018-12-30T15:47:43.060Z,95428.95
2018-12-30T15:50:11.728Z,95424.97
2018-12-30T15:52:40.382Z,95428.34
2018-12-30T15:55:09.131Z,95419.44
2018-12-30T15:57:37.948Z,95431.67
2018-12-30T16:00:08.868Z,95431.25
2018-12-30T16:02:37.544Z,95434.05
2018-12-30T16:05:06.465Z,95430.39
2018-12-30T16:07:34.954Z,95434.31
2018-12-30T16:10:04.585Z,95433.73
2018-12-30T16:12:33.650Z,95434.46
2018-12-30T16:15:02.279Z,95436.59
2018-12-30T16:17:30.829Z,95433.69
2018-12-30T16:19:59.512Z,95436.36
2018-12-30T16:22:28.146Z,95437.91
2018-12-30T16:24:56.777Z,95438.45
2018-12-30T16:27:25.295Z,95438.27
2018-12-30T16:29:53.848Z,95435.52
2018-12-30T16:32:22.484Z,95438.41
2018-12-30T16:34:51.430Z,95441.36
2018-12-30T16:37:19.985Z,95440.02
2018-12-30T16:39:48.620Z,95443.37
2018-12-30T16:42:17.452Z,95442.30
2018-12-30T16:44:45.954Z,95448.22
2018-12-30T16:47:14.582Z,95450.58
2018-12-30T16:49:43.504Z,95442.95
2018-12-30T16:52:11.998Z,95435.48
2018-12-30T16:54:40.628Z,95437.45
2018-12-30T16:57:09.600Z,95441.91
2018-12-30T16:59:38.219Z,95449.66
2018-12-30T17:02:06.788Z,95449.58
2018-12-30T17:04:35.516Z,95452.05
2018-12-30T17:07:04.138Z,95451.09
2018-12-30T17:09:32.868Z,95446.16
2018-12-30T17:12:01.402Z,95447.71
2018-12-30T17:14:29.885Z,95450.54
2018-12-30T17:16:59.632Z,95448.71
2018-12-30T17:19:28.396Z,95455.27
2018-12-30T17:21:57.024Z,95451.39
2018-12-30T17:24:25.727Z,95459.30
2018-12-30T17:26:54.461Z,95456.03
2018-12-30T17:29:23.160Z,95463.08
2018-12-30T17:31:51.839Z,95468.08
2018-12-30T17:34:20.756Z,95470.83
2018-12-30T17:36:49.312Z,95468.47
2018-12-30T17:39:17.807Z,95468.47
2018-12-30T17:41:46.712Z,95464.27
2018-12-30T17:44:15.333Z,95470.02
2018-12-30T17:46:43.816Z,95471.02
2018-12-30T17:49:12.665Z,95475.63
2018-12-30T17:51:41.302Z,95469.72
2018-12-30T17:54:15.132Z,95465.81
2018-12-30T17:56:40.448Z,95466.69
2018-12-30T17:59:09.068Z,95478.53
2018-12-30T18:01:37.639Z,95470.69
2018-12-30T18:04:06.523Z,95466.30
2018-12-30T18:06:35.148Z,95473.11
2018-12-30T18:09:04.426Z,95468.63
2018-12-30T18:11:32.972Z,95472.27
2018-12-30T18:14:01.466Z,95471.77
2018-12-30T18:16:30.112Z,95475.42
2018-12-30T18:18:59.055Z,95474.72
2018-12-30T18:21:27.539Z,95471.97
2018-12-30T18:23:56.103Z,95474.80
2018-12-30T18:26:24.999Z,95471.23
2018-12-30T18:28:53.705Z,95466.31
2018-12-30T18:31:22.270Z,95476.61
2018-12-30T18:33:50.923Z,95476.54
2018-12-30T18:36:19.559Z,95481.38
2018-12-30T18:38:48.180Z,95471.70
2018-12-30T18:41:16.927Z,95468.95
2018-12-30T18:43:45.487Z,95468.17
2018-12-30T18:46:14.130Z,95467.67
2018-12-30T18:48:43.066Z,95468.09
2018-12-30T18:51:11.711Z,95473.75
2018-12-30T18:53:40.274Z,95475.34
2018-12-30T18:56:09.057Z,95466.42
2018-12-30T18:58:37.692Z,95470.03
2018-12-30T19:01:06.315Z,95463.70
2018-12-30T19:03:35.172Z,95469.14
2018-12-30T19:06:03.799Z,95470.42
2018-12-30T19:08:32.431Z,95468.75
2018-12-30T19:11:01.334Z,95466.23
2018-12-30T19:13:29.826Z,95465.30
2018-12-30T19:15:58.448Z,95459.52
2018-12-30T19:18:27.192Z,95464.84
2018-12-30T19:20:55.825Z,95467.44
2018-12-30T19:23:24.539Z,95470.34
2018-12-30T19:26:00.880Z,95461.94
2018-12-30T19:28:23.649Z,95461.13
2018-12-30T19:30:52.284Z,95463.22
2018-12-30T19:33:20.962Z,95464.38
2018-12-30T19:35:49.441Z,95459.37
2018-12-30T19:38:17.932Z,95455.38
2018-12-30T19:40:46.899Z,95455.84
2018-12-30T19:43:15.533Z,95451.46
2018-12-30T19:45:44.017Z,95451.04
2018-12-30T19:48:12.859Z,95450.07
2018-12-30T19:50:41.502Z,95450.03
2018-12-30T19:53:10.120Z,95449.65
2018-12-30T19:55:38.767Z,95452.16
2018-12-30T19:58:07.396Z,95445.07
2018-12-30T20:00:36.018Z,95445.46
2018-12-30T20:03:04.882Z,95441.97
2018-12-30T20:05:33.516Z,95443.25
2018-12-30T20:08:02.192Z,95440.00
2018-12-30T20:10:38.223Z,95444.30
2018-12-30T20:13:09.075Z,95440.16
2018-12-30T20:15:37.104Z,95443.03
2018-12-30T20:18:05.727Z,95439.11
2018-12-30T20:20:34.345Z,95444.07
2018-12-30T20:23:02.921Z,95445.97
2018-12-30T20:25:31.546Z,95443.45
2018-12-30T20:28:00.170Z,95436.80
2018-12-30T20:30:28.663Z,95439.22
2018-12-30T20:32:57.143Z,95434.42
2018-12-30T20:35:25.809Z,95428.07
2018-12-30T20:37:54.313Z,95432.98
2018-12-30T20:40:22.933Z,95433.02
2018-12-30T20:42:51.610Z,95433.95
2018-12-30T20:45:20.090Z,95437.11
2018-12-30T20:47:48.643Z,95434.91
2018-12-30T20:50:17.569Z,95428.95
2018-12-30T20:52:46.314Z,95434.56
2018-12-30T20:55:14.812Z,95429.56
2018-12-30T20:57:43.641Z,95426.23
2018-12-30T21:00:12.737Z,95430.34
2018-12-30T21:02:41.361Z,95427.55
2018-12-30T21:05:10.187Z,95432.75
2018-12-30T21:07:38.734Z,95432.55
2018-12-30T21:10:08.179Z,95437.59
2018-12-30T21:12:36.850Z,95432.39
2018-12-30T21:15:06.516Z,95428.42
2018-12-30T21:17:35.007Z,95436.32
2018-12-30T21:20:03.919Z,95432.48
2018-12-30T21:22:32.561Z,95431.59
2018-12-30T21:25:01.052Z,95438.59
2018-12-30T21:27:29.808Z,95438.56
2018-12-30T21:29:58.428Z,95433.68
2018-12-30T21:32:27.116Z,95433.75
2018-12-30T21:34:55.850Z,95432.94
2018-12-30T21:37:24.340Z,95438.43
2018-12-30T21:39:53.037Z,95432.33
2018-12-30T21:42:21.984Z,95431.08
2018-12-30T21:44:50.478Z,95430.97
2018-12-30T21:47:18.963Z,95433.45
2018-12-30T21:49:47.632Z,95431.52
2018-12-30T21:52:16.267Z,95433.48
2018-12-30T21:54:44.828Z,95429.42
2018-12-30T21:57:13.691Z,95429.07
2018-12-30T21:59:42.171Z,95435.03
2018-12-30T22:02:10.724Z,95432.72
2018-12-30T22:04:39.535Z,95429.49
2018-12-30T22:07:08.154Z,95432.52
2018-12-30T22:09:36.648Z,95439.50
2018-12-30T22:12:05.562Z,95433.22
2018-12-30T22:14:34.194Z,95430.31
2018-12-30T22:17:02.814Z,95430.39
2018-12-30T22:19:31.659Z,95434.78
2018-12-30T22:22:00.161Z,95426.41
2018-12-30T22:24:28.795Z,95430.47
2018-12-30T22:26:57.812Z,95428.50
2018-12-30T22:29:26.365Z,95433.46
2018-12-30T22:31:54.920Z,95430.39
2018-12-30T22:34:23.872Z,95421.03
2018-12-30T22:36:52.364Z,95423.31
2018-12-30T22:39:20.997Z,95424.05
2018-12-30T22:41:49.944Z,95428.30
2018-12-30T22:44:18.422Z,95422.88
2018-12-30T22:46:46.986Z,95424.05
2018-12-30T22:49:15.619Z,95420.86
2018-12-30T22:51:44.244Z,95421.03
2018-12-30T22:54:13.041Z,95424.78
2018-12-30T22:56:41.598Z,95418.63
2018-12-30T22:59:10.225Z,95417.53
2018-12-30T23:01:39.211Z,95418.73
2018-12-30T23:04:07.710Z,95414.67
2018-12-30T23:06:36.248Z,95413.81
2018-12-30T23:09:06.896Z,95415.33
2018-12-30T23:11:35.511Z,95416.17
2018-12-30T23:14:04.080Z,95409.16
2018-12-30T23:16:32.743Z,95411.30
2018-12-30T23:19:01.232Z,95403.32
2018-12-30T23:21:29.781Z,95406.53
2018-12-30T23:23:58.705Z,95411.03
2018-12-30T23:26:27.336Z,95405.10
2018-12-30T23:28:55.841Z,95399.95
2018-12-30T23:31:24.795Z,95401.14
2018-12-30T23:33:53.408Z,95396.23
2018-12-30T23:36:22.043Z,95396.49
2018-12-30T23:38:50.599Z,95392.55
2018-12-30T23:41:19.163Z,95394.41
2018-12-30T23:43:48.083Z,95394.41
2018-12-30T23:46:16.720Z,95402.14
2018-12-30T23:48:45.272Z,95403.56
2018-12-30T23:51:14.137Z,95401.98
2018-12-30T23:53:42.767Z,95402.95
2018-12-30T23:56:11.261Z,95406.82
2018-12-30T23:58:40.201Z,95404.66
